sensor_id;sensor_type;location;lat;lon;timestamp;P1;durP1;ratioP1;P2;durP2;ratioP2
56943;SDS011;42848;42.524;12.052;2023-09-18T00:01:56;5.82;;;3.35;;
56943;SDS011;42848;42.524;12.052;2023-09-18T00:04:21;7.57;;;3.20;;
56943;SDS011;42848;42.524;12.052;2023-09-18T00:06:47;5.60;;;2.75;;
56943;SDS011;42848;42.524;12.052;2023-09-18T00:09:13;6.65;;;3.20;;
56943;SDS011;42848;42.524;12.052;2023-09-18T00:11:39;6.45;;;3.00;;
56943;SDS011;42848;42.524;12.052;2023-09-18T00:14:06;6.63;;;3.30;;
56943;SDS011;42848;42.524;12.052;2023-09-18T00:16:33;9.65;;;3.28;;
56943;SDS011;42848;42.524;12.052;2023-09-18T00:18:59;6.20;;;3.00;;
56943;SDS011;42848;42.524;12.052;2023-09-18T00:21:24;5.90;;;2.70;;
56943;SDS011;42848;42.524;12.052;2023-09-18T00:23:51;8.73;;;3.28;;
56943;SDS011;42848;42.524;12.052;2023-09-18T00:26:17;7.65;;;3.20;;
56943;SDS011;42848;42.524;12.052;2023-09-18T00:28:43;6.78;;;3.08;;
56943;SDS011;42848;42.524;12.052;2023-09-18T00:31:08;5.20;;;3.28;;
56943;SDS011;42848;42.524;12.052;2023-09-18T00:33:35;10.35;;;3.15;;
56943;SDS011;42848;42.524;12.052;2023-09-18T00:36:00;11.27;;;3.28;;
56943;SDS011;42848;42.524;12.052;2023-09-18T00:38:26;7.18;;;3.03;;
56943;SDS011;42848;42.524;12.052;2023-09-18T00:40:54;8.68;;;3.50;;
56943;SDS011;42848;42.524;12.052;2023-09-18T00:43:20;5.65;;;3.10;;
56943;SDS011;42848;42.524;12.052;2023-09-18T00:45:47;8.77;;;3.22;;
56943;SDS011;42848;42.524;12.052;2023-09-18T00:48:17;5.07;;;2.90;;
56943;SDS011;42848;42.524;12.052;2023-09-18T00:50:43;4.80;;;2.90;;
56943;SDS011;42848;42.524;12.052;2023-09-18T00:53:11;5.22;;;3.05;;
56943;SDS011;42848;42.524;12.052;2023-09-18T00:55:41;7.45;;;3.38;;
56943;SDS011;42848;42.524;12.052;2023-09-18T00:58:07;7.20;;;3.25;;
56943;SDS011;42848;42.524;12.052;2023-09-18T01:00:33;7.07;;;3.05;;
56943;SDS011;42848;42.524;12.052;2023-09-18T01:02:58;5.85;;;3.03;;
56943;SDS011;42848;42.524;12.052;2023-09-18T01:05:27;7.22;;;3.20;;
56943;SDS011;42848;42.524;12.052;2023-09-18T01:07:52;7.15;;;3.38;;
56943;SDS011;42848;42.524;12.052;2023-09-18T01:10:18;7.20;;;3.20;;
56943;SDS011;42848;42.524;12.052;2023-09-18T01:12:53;5.45;;;3.08;;
56943;SDS011;42848;42.524;12.052;2023-09-18T01:15:30;6.65;;;3.42;;
56943;SDS011;42848;42.524;12.052;2023-09-18T01:18:00;6.45;;;3.30;;
56943;SDS011;42848;42.524;12.052;2023-09-18T01:20:26;6.57;;;3.50;;
56943;SDS011;42848;42.524;12.052;2023-09-18T01:22:52;6.63;;;3.35;;
56943;SDS011;42848;42.524;12.052;2023-09-18T01:25:18;9.68;;;3.67;;
56943;SDS011;42848;42.524;12.052;2023-09-18T01:27:43;6.57;;;3.70;;
56943;SDS011;42848;42.524;12.052;2023-09-18T01:30:09;8.35;;;3.75;;
56943;SDS011;42848;42.524;12.052;2023-09-18T01:32:35;6.22;;;3.72;;
56943;SDS011;42848;42.524;12.052;2023-09-18T01:35:03;8.52;;;4.00;;
56943;SDS011;42848;42.524;12.052;2023-09-18T01:37:32;7.30;;;4.15;;
56943;SDS011;42848;42.524;12.052;2023-09-18T01:40:00;8.55;;;3.92;;
56943;SDS011;42848;42.524;12.052;2023-09-18T01:42:32;7.40;;;3.90;;
56943;SDS011;42848;42.524;12.052;2023-09-18T01:44:59;7.25;;;4.10;;
56943;SDS011;42848;42.524;12.052;2023-09-18T01:47:24;8.48;;;4.32;;
56943;SDS011;42848;42.524;12.052;2023-09-18T01:49:52;8.05;;;4.25;;
56943;SDS011;42848;42.524;12.052;2023-09-18T01:52:17;8.93;;;4.20;;
56943;SDS011;42848;42.524;12.052;2023-09-18T01:54:43;8.80;;;4.50;;
56943;SDS011;42848;42.524;12.052;2023-09-18T01:57:09;8.68;;;4.40;;
56943;SDS011;42848;42.524;12.052;2023-09-18T01:59:34;8.30;;;4.60;;
56943;SDS011;42848;42.524;12.052;2023-09-18T02:02:00;8.00;;;4.20;;
56943;SDS011;42848;42.524;12.052;2023-09-18T02:04:29;7.90;;;4.38;;
56943;SDS011;42848;42.524;12.052;2023-09-18T02:06:55;7.90;;;4.63;;
56943;SDS011;42848;42.524;12.052;2023-09-18T02:09:22;8.75;;;5.03;;
56943;SDS011;42848;42.524;12.052;2023-09-18T02:11:47;8.40;;;5.00;;
56943;SDS011;42848;42.524;12.052;2023-09-18T02:14:13;6.97;;;4.65;;
56943;SDS011;42848;42.524;12.052;2023-09-18T02:16:41;10.20;;;5.25;;
56943;SDS011;42848;42.524;12.052;2023-09-18T02:19:09;8.95;;;5.13;;
56943;SDS011;42848;42.524;12.052;2023-09-18T02:21:36;8.77;;;5.13;;
56943;SDS011;42848;42.524;12.052;2023-09-18T02:24:03;7.90;;;5.10;;
56943;SDS011;42848;42.524;12.052;2023-09-18T02:26:29;8.48;;;5.10;;
56943;SDS011;42848;42.524;12.052;2023-09-18T02:28:58;8.40;;;4.95;;
56943;SDS011;42848;42.524;12.052;2023-09-18T02:31:26;11.57;;;5.30;;
56943;SDS011;42848;42.524;12.052;2023-09-18T02:33:52;7.90;;;5.13;;
56943;SDS011;42848;42.524;12.052;2023-09-18T02:36:18;9.10;;;5.25;;
56943;SDS011;42848;42.524;12.052;2023-09-18T02:38:43;8.82;;;5.45;;
56943;SDS011;42848;42.524;12.052;2023-09-18T02:41:09;8.27;;;5.35;;
56943;SDS011;42848;42.524;12.052;2023-09-18T02:43:36;8.52;;;5.40;;
56943;SDS011;42848;42.524;12.052;2023-09-18T02:46:04;10.82;;;5.57;;
56943;SDS011;42848;42.524;12.052;2023-09-18T02:48:31;9.82;;;5.55;;
56943;SDS011;42848;42.524;12.052;2023-09-18T02:51:00;7.88;;;5.43;;
56943;SDS011;42848;42.524;12.052;2023-09-18T02:53:27;9.98;;;5.97;;
56943;SDS011;42848;42.524;12.052;2023-09-18T02:55:55;10.90;;;5.50;;
56943;SDS011;42848;42.524;12.052;2023-09-18T02:58:21;12.95;;;6.00;;
56943;SDS011;42848;42.524;12.052;2023-09-18T03:00:51;9.57;;;5.45;;
56943;SDS011;42848;42.524;12.052;2023-09-18T03:03:20;11.02;;;5.82;;
56943;SDS011;42848;42.524;12.052;2023-09-18T03:05:46;8.13;;;5.57;;
56943;SDS011;42848;42.524;12.052;2023-09-18T03:08:13;8.35;;;5.68;;
56943;SDS011;42848;42.524;12.052;2023-09-18T03:10:41;9.23;;;6.03;;
56943;SDS011;42848;42.524;12.052;2023-09-18T03:13:09;10.05;;;6.03;;
56943;SDS011;42848;42.524;12.052;2023-09-18T03:15:36;10.70;;;5.53;;
56943;SDS011;42848;42.524;12.052;2023-09-18T03:18:02;12.50;;;6.13;;
56943;SDS011;42848;42.524;12.052;2023-09-18T03:20:29;8.57;;;6.00;;
56943;SDS011;42848;42.524;12.052;2023-09-18T03:22:57;13.95;;;6.22;;
56943;SDS011;42848;42.524;12.052;2023-09-18T03:25:25;10.38;;;5.70;;
56943;SDS011;42848;42.524;12.052;2023-09-18T03:27:52;9.23;;;5.60;;
56943;SDS011;42848;42.524;12.052;2023-09-18T03:30:19;10.18;;;5.90;;
56943;SDS011;42848;42.524;12.052;2023-09-18T03:32:47;9.07;;;5.60;;
56943;SDS011;42848;42.524;12.052;2023-09-18T03:35:16;9.20;;;5.55;;
56943;SDS011;42848;42.524;12.052;2023-09-18T03:37:52;10.38;;;5.60;;
56943;SDS011;42848;42.524;12.052;2023-09-18T03:40:21;10.07;;;5.40;;
56943;SDS011;42848;42.524;12.052;2023-09-18T03:42:48;9.60;;;5.82;;
56943;SDS011;42848;42.524;12.052;2023-09-18T03:45:15;8.18;;;5.75;;
56943;SDS011;42848;42.524;12.052;2023-09-18T03:47:44;11.55;;;5.93;;
56943;SDS011;42848;42.524;12.052;2023-09-18T03:50:10;9.52;;;5.82;;
56943;SDS011;42848;42.524;12.052;2023-09-18T03:52:37;10.13;;;6.05;;
56943;SDS011;42848;42.524;12.052;2023-09-18T03:55:04;11.45;;;6.28;;
56943;SDS011;42848;42.524;12.052;2023-09-18T03:57:31;9.70;;;6.03;;
56943;SDS011;42848;42.524;12.052;2023-09-18T03:59:56;9.68;;;5.70;;
56943;SDS011;42848;42.524;12.052;2023-09-18T04:02:23;8.27;;;5.72;;
56943;SDS011;42848;42.524;12.052;2023-09-18T04:04:50;12.43;;;5.50;;
56943;SDS011;42848;42.524;12.052;2023-09-18T04:07:16;10.98;;;6.18;;
56943;SDS011;42848;42.524;12.052;2023-09-18T04:09:42;9.13;;;6.03;;
56943;SDS011;42848;42.524;12.052;2023-09-18T04:12:08;10.18;;;5.50;;
56943;SDS011;42848;42.524;12.052;2023-09-18T04:14:34;10.50;;;5.80;;
56943;SDS011;42848;42.524;12.052;2023-09-18T04:17:01;9.63;;;5.18;;
56943;SDS011;42848;42.524;12.052;2023-09-18T04:19:27;9.13;;;5.72;;
56943;SDS011;42848;42.524;12.052;2023-09-18T04:21:53;9.27;;;5.68;;
56943;SDS011;42848;42.524;12.052;2023-09-18T04:24:18;10.18;;;5.85;;
56943;SDS011;42848;42.524;12.052;2023-09-18T04:26:44;9.90;;;5.85;;
56943;SDS011;42848;42.524;12.052;2023-09-18T04:29:10;10.98;;;5.35;;
56943;SDS011;42848;42.524;12.052;2023-09-18T04:31:35;11.30;;;6.00;;
56943;SDS011;42848;42.524;12.052;2023-09-18T04:34:01;11.68;;;7.18;;
56943;SDS011;42848;42.524;12.052;2023-09-18T04:36:28;10.00;;;6.18;;
56943;SDS011;42848;42.524;12.052;2023-09-18T04:38:53;10.50;;;6.13;;
56943;SDS011;42848;42.524;12.052;2023-09-18T04:41:19;10.93;;;5.55;;
56943;SDS011;42848;42.524;12.052;2023-09-18T04:43:44;8.32;;;4.97;;
56943;SDS011;42848;42.524;12.052;2023-09-18T04:46:10;8.77;;;5.25;;
56943;SDS011;42848;42.524;12.052;2023-09-18T04:48:36;10.75;;;5.75;;
56943;SDS011;42848;42.524;12.052;2023-09-18T04:51:02;12.18;;;5.75;;
56943;SDS011;42848;42.524;12.052;2023-09-18T04:53:29;11.55;;;5.97;;
56943;SDS011;42848;42.524;12.052;2023-09-18T04:55:56;12.70;;;6.25;;
56943;SDS011;42848;42.524;12.052;2023-09-18T04:58:22;14.27;;;6.50;;
56943;SDS011;42848;42.524;12.052;2023-09-18T05:00:57;9.60;;;6.13;;
56943;SDS011;42848;42.524;12.052;2023-09-18T05:03:24;12.75;;;6.25;;
56943;SDS011;42848;42.524;12.052;2023-09-18T05:05:54;12.20;;;7.30;;
56943;SDS011;42848;42.524;12.052;2023-09-18T05:08:20;13.15;;;6.38;;
56943;SDS011;42848;42.524;12.052;2023-09-18T05:10:46;9.25;;;5.53;;
56943;SDS011;42848;42.524;12.052;2023-09-18T05:13:12;7.72;;;5.20;;
56943;SDS011;42848;42.524;12.052;2023-09-18T05:15:38;8.05;;;5.07;;
56943;SDS011;42848;42.524;12.052;2023-09-18T05:18:04;8.20;;;4.57;;
56943;SDS011;42848;42.524;12.052;2023-09-18T05:20:30;7.65;;;4.88;;
56943;SDS011;42848;42.524;12.052;2023-09-18T05:22:56;9.85;;;5.10;;
56943;SDS011;42848;42.524;12.052;2023-09-18T05:25:25;10.35;;;5.30;;
56943;SDS011;42848;42.524;12.052;2023-09-18T05:27:52;9.10;;;5.53;;
56943;SDS011;42848;42.524;12.052;2023-09-18T05:30:28;9.70;;;4.88;;
56943;SDS011;42848;42.524;12.052;2023-09-18T05:33:04;7.97;;;4.53;;
56943;SDS011;42848;42.524;12.052;2023-09-18T05:37:58;9.40;;;4.25;;
56943;SDS011;42848;42.524;12.052;2023-09-18T05:40:25;10.07;;;4.18;;
56943;SDS011;42848;42.524;12.052;2023-09-18T05:42:52;8.73;;;4.13;;
56943;SDS011;42848;42.524;12.052;2023-09-18T05:45:19;8.63;;;3.75;;
56943;SDS011;42848;42.524;12.052;2023-09-18T05:47:45;7.90;;;3.67;;
56943;SDS011;42848;42.524;12.052;2023-09-18T05:50:12;9.07;;;4.00;;
56943;SDS011;42848;42.524;12.052;2023-09-18T05:52:40;9.23;;;4.10;;
56943;SDS011;42848;42.524;12.052;2023-09-18T05:55:06;11.20;;;4.45;;
56943;SDS011;42848;42.524;12.052;2023-09-18T05:57:32;7.07;;;3.88;;
56943;SDS011;42848;42.524;12.052;2023-09-18T05:59:58;8.73;;;4.28;;
56943;SDS011;42848;42.524;12.052;2023-09-18T06:02:23;9.50;;;4.45;;
56943;SDS011;42848;42.524;12.052;2023-09-18T06:04:55;8.07;;;4.20;;
56943;SDS011;42848;42.524;12.052;2023-09-18T06:07:23;11.00;;;4.32;;
56943;SDS011;42848;42.524;12.052;2023-09-18T06:09:50;9.98;;;4.13;;
56943;SDS011;42848;42.524;12.052;2023-09-18T06:12:15;17.42;;;4.68;;
56943;SDS011;42848;42.524;12.052;2023-09-18T06:14:41;11.43;;;4.38;;
56943;SDS011;42848;42.524;12.052;2023-09-18T06:17:07;8.55;;;4.15;;
56943;SDS011;42848;42.524;12.052;2023-09-18T06:19:35;10.25;;;6.45;;
56943;SDS011;42848;42.524;12.052;2023-09-18T06:22:01;9.77;;;5.70;;
56943;SDS011;42848;42.524;12.052;2023-09-18T06:24:27;7.15;;;4.93;;
56943;SDS011;42848;42.524;12.052;2023-09-18T06:26:53;11.60;;;6.38;;
56943;SDS011;42848;42.524;12.052;2023-09-18T06:29:19;8.30;;;5.18;;
56943;SDS011;42848;42.524;12.052;2023-09-18T06:31:44;8.77;;;5.20;;
56943;SDS011;42848;42.524;12.052;2023-09-18T06:34:11;13.07;;;6.70;;
56943;SDS011;42848;42.524;12.052;2023-09-18T06:36:37;11.73;;;6.40;;
56943;SDS011;42848;42.524;12.052;2023-09-18T06:39:02;10.13;;;4.40;;
56943;SDS011;42848;42.524;12.052;2023-09-18T06:41:28;7.55;;;3.78;;
56943;SDS011;42848;42.524;12.052;2023-09-18T06:43:54;7.50;;;3.83;;
56943;SDS011;42848;42.524;12.052;2023-09-18T06:46:20;8.32;;;4.15;;
56943;SDS011;42848;42.524;12.052;2023-09-18T06:48:45;10.65;;;4.13;;
56943;SDS011;42848;42.524;12.052;2023-09-18T06:51:14;8.43;;;4.10;;
56943;SDS011;42848;42.524;12.052;2023-09-18T06:53:41;10.35;;;4.05;;
56943;SDS011;42848;42.524;12.052;2023-09-18T06:56:06;6.63;;;3.83;;
56943;SDS011;42848;42.524;12.052;2023-09-18T06:58:34;8.82;;;4.38;;
56943;SDS011;42848;42.524;12.052;2023-09-18T07:01:00;9.73;;;4.00;;
56943;SDS011;42848;42.524;12.052;2023-09-18T07:03:26;7.55;;;4.20;;
56943;SDS011;42848;42.524;12.052;2023-09-18T07:05:51;8.00;;;4.07;;
56943;SDS011;42848;42.524;12.052;2023-09-18T07:08:17;8.73;;;4.20;;
56943;SDS011;42848;42.524;12.052;2023-09-18T07:10:49;8.95;;;4.60;;
56943;SDS011;42848;42.524;12.052;2023-09-18T07:13:18;10.70;;;5.50;;
56943;SDS011;42848;42.524;12.052;2023-09-18T07:15:43;8.77;;;5.10;;
56943;SDS011;42848;42.524;12.052;2023-09-18T07:18:09;8.93;;;4.35;;
56943;SDS011;42848;42.524;12.052;2023-09-18T07:20:45;6.47;;;3.80;;
56943;SDS011;42848;42.524;12.052;2023-09-18T07:23:11;7.75;;;3.80;;
56943;SDS011;42848;42.524;12.052;2023-09-18T07:25:36;7.10;;;3.80;;
56943;SDS011;42848;42.524;12.052;2023-09-18T07:28:06;6.88;;;3.70;;
56943;SDS011;42848;42.524;12.052;2023-09-18T07:30:31;7.13;;;4.00;;
56943;SDS011;42848;42.524;12.052;2023-09-18T07:32:58;7.50;;;3.75;;
56943;SDS011;42848;42.524;12.052;2023-09-18T07:35:25;7.18;;;3.90;;
56943;SDS011;42848;42.524;12.052;2023-09-18T07:37:52;6.55;;;4.13;;
56943;SDS011;42848;42.524;12.052;2023-09-18T07:40:18;8.55;;;4.25;;
56943;SDS011;42848;42.524;12.052;2023-09-18T07:42:43;6.93;;;4.20;;
56943;SDS011;42848;42.524;12.052;2023-09-18T07:45:10;7.70;;;3.90;;
56943;SDS011;42848;42.524;12.052;2023-09-18T07:47:36;7.47;;;4.10;;
56943;SDS011;42848;42.524;12.052;2023-09-18T07:50:01;6.85;;;3.65;;
56943;SDS011;42848;42.524;12.052;2023-09-18T07:52:28;7.10;;;4.03;;
56943;SDS011;42848;42.524;12.052;2023-09-18T07:54:55;7.35;;;4.07;;
56943;SDS011;42848;42.524;12.052;2023-09-18T07:57:21;9.10;;;4.20;;
56943;SDS011;42848;42.524;12.052;2023-09-18T07:59:48;7.53;;;4.10;;
56943;SDS011;42848;42.524;12.052;2023-09-18T08:02:14;6.68;;;3.70;;
56943;SDS011;42848;42.524;12.052;2023-09-18T08:04:41;7.43;;;3.50;;
56943;SDS011;42848;42.524;12.052;2023-09-18T08:07:07;8.20;;;3.72;;
56943;SDS011;42848;42.524;12.052;2023-09-18T08:09:33;6.70;;;3.80;;
56943;SDS011;42848;42.524;12.052;2023-09-18T08:12:05;5.75;;;3.53;;
56943;SDS011;42848;42.524;12.052;2023-09-18T08:14:32;9.07;;;3.70;;
56943;SDS011;42848;42.524;12.052;2023-09-18T08:17:00;7.47;;;3.63;;
56943;SDS011;42848;42.524;12.052;2023-09-18T08:19:28;7.03;;;3.78;;
56943;SDS011;42848;42.524;12.052;2023-09-18T08:21:54;9.27;;;3.53;;
56943;SDS011;42848;42.524;12.052;2023-09-18T08:24:24;11.73;;;3.97;;
56943;SDS011;42848;42.524;12.052;2023-09-18T08:26:49;8.10;;;3.88;;
56943;SDS011;42848;42.524;12.052;2023-09-18T08:29:15;8.43;;;3.83;;
56943;SDS011;42848;42.524;12.052;2023-09-18T08:31:41;7.35;;;3.72;;
56943;SDS011;42848;42.524;12.052;2023-09-18T08:34:07;5.50;;;3.45;;
56943;SDS011;42848;42.524;12.052;2023-09-18T08:36:33;7.75;;;3.50;;
56943;SDS011;42848;42.524;12.052;2023-09-18T08:38:58;8.25;;;3.45;;
56943;SDS011;42848;42.524;12.052;2023-09-18T08:41:24;8.38;;;3.42;;
56943;SDS011;42848;42.524;12.052;2023-09-18T08:43:56;6.85;;;3.30;;
56943;SDS011;42848;42.524;12.052;2023-09-18T08:46:25;4.80;;;3.10;;
56943;SDS011;42848;42.524;12.052;2023-09-18T08:48:51;6.50;;;3.50;;
56943;SDS011;42848;42.524;12.052;2023-09-18T08:51:18;5.78;;;3.15;;
56943;SDS011;42848;42.524;12.052;2023-09-18T08:53:44;7.38;;;3.33;;
56943;SDS011;42848;42.524;12.052;2023-09-18T08:56:11;8.27;;;3.10;;
56943;SDS011;42848;42.524;12.052;2023-09-18T08:58:39;6.93;;;3.00;;
56943;SDS011;42848;42.524;12.052;2023-09-18T09:01:10;5.70;;;2.97;;
56943;SDS011;42848;42.524;12.052;2023-09-18T09:03:37;6.43;;;3.30;;
56943;SDS011;42848;42.524;12.052;2023-09-18T09:06:12;5.93;;;2.80;;
56943;SDS011;42848;42.524;12.052;2023-09-18T09:08:38;4.20;;;2.88;;
56943;SDS011;42848;42.524;12.052;2023-09-18T09:11:04;6.65;;;2.80;;
56943;SDS011;42848;42.524;12.052;2023-09-18T09:13:31;5.65;;;2.88;;
56943;SDS011;42848;42.524;12.052;2023-09-18T09:15:57;6.93;;;3.33;;
56943;SDS011;42848;42.524;12.052;2023-09-18T09:18:25;4.88;;;2.75;;
56943;SDS011;42848;42.524;12.052;2023-09-18T09:20:53;6.60;;;2.85;;
56943;SDS011;42848;42.524;12.052;2023-09-18T09:23:19;7.57;;;3.10;;
56943;SDS011;42848;42.524;12.052;2023-09-18T09:25:44;7.70;;;3.03;;
56943;SDS011;42848;42.524;12.052;2023-09-18T09:28:10;4.68;;;2.75;;
56943;SDS011;42848;42.524;12.052;2023-09-18T09:30:37;5.68;;;2.83;;
56943;SDS011;42848;42.524;12.052;2023-09-18T09:33:03;6.10;;;2.80;;
56943;SDS011;42848;42.524;12.052;2023-09-18T09:35:31;7.10;;;3.05;;
56943;SDS011;42848;42.524;12.052;2023-09-18T09:37:59;6.63;;;2.90;;
56943;SDS011;42848;42.524;12.052;2023-09-18T09:40:39;6.32;;;3.03;;
56943;SDS011;42848;42.524;12.052;2023-09-18T09:43:07;4.80;;;2.90;;
56943;SDS011;42848;42.524;12.052;2023-09-18T09:45:34;6.55;;;2.80;;
56943;SDS011;42848;42.524;12.052;2023-09-18T09:48:01;7.63;;;2.90;;
56943;SDS011;42848;42.524;12.052;2023-09-18T09:50:32;5.97;;;3.20;;
56943;SDS011;42848;42.524;12.052;2023-09-18T09:52:58;5.70;;;2.75;;
56943;SDS011;42848;42.524;12.052;2023-09-18T09:55:28;6.43;;;3.10;;
56943;SDS011;42848;42.524;12.052;2023-09-18T09:57:59;5.28;;;2.72;;
56943;SDS011;42848;42.524;12.052;2023-09-18T10:00:40;5.53;;;3.00;;
56943;SDS011;42848;42.524;12.052;2023-09-18T10:05:38;6.43;;;3.30;;
56943;SDS011;42848;42.524;12.052;2023-09-18T10:13:18;6.57;;;2.95;;
56943;SDS011;42848;42.524;12.052;2023-09-18T10:15:46;6.13;;;2.88;;
56943;SDS011;42848;42.524;12.052;2023-09-18T10:26:43;4.70;;;3.05;;
56943;SDS011;42848;42.524;12.052;2023-09-18T10:29:15;9.10;;;3.25;;
56943;SDS011;42848;42.524;12.052;2023-09-18T10:31:43;7.40;;;3.15;;
56943;SDS011;42848;42.524;12.052;2023-09-18T10:34:10;5.05;;;3.15;;
56943;SDS011;42848;42.524;12.052;2023-09-18T10:36:39;7.50;;;3.55;;
56943;SDS011;42848;42.524;12.052;2023-09-18T10:39:08;6.38;;;3.10;;
56943;SDS011;42848;42.524;12.052;2023-09-18T10:41:37;5.68;;;3.10;;
56943;SDS011;42848;42.524;12.052;2023-09-18T10:44:04;5.55;;;3.00;;
56943;SDS011;42848;42.524;12.052;2023-09-18T10:46:30;5.22;;;2.67;;
56943;SDS011;42848;42.524;12.052;2023-09-18T10:48:58;6.53;;;2.67;;
56943;SDS011;42848;42.524;12.052;2023-09-18T10:51:25;7.88;;;2.78;;
56943;SDS011;42848;42.524;12.052;2023-09-18T10:53:52;6.72;;;2.70;;
56943;SDS011;42848;42.524;12.052;2023-09-18T10:56:21;4.13;;;2.63;;
56943;SDS011;42848;42.524;12.052;2023-09-18T10:58:55;6.45;;;2.65;;
56943;SDS011;42848;42.524;12.052;2023-09-18T11:01:23;5.55;;;2.85;;
56943;SDS011;42848;42.524;12.052;2023-09-18T11:03:52;5.88;;;2.70;;
56943;SDS011;42848;42.524;12.052;2023-09-18T11:06:24;6.18;;;2.60;;
56943;SDS011;42848;42.524;12.052;2023-09-18T11:08:53;5.47;;;2.60;;
56943;SDS011;42848;42.524;12.052;2023-09-18T11:11:26;6.63;;;2.80;;
56943;SDS011;42848;42.524;12.052;2023-09-18T11:13:55;6.88;;;3.03;;
56943;SDS011;42848;42.524;12.052;2023-09-18T11:18:54;7.20;;;3.30;;
56943;SDS011;42848;42.524;12.052;2023-09-18T11:21:34;6.85;;;3.30;;
56943;SDS011;42848;42.524;12.052;2023-09-18T11:24:01;5.90;;;3.00;;
56943;SDS011;42848;42.524;12.052;2023-09-18T11:26:33;5.80;;;3.00;;
56943;SDS011;42848;42.524;12.052;2023-09-18T11:29:00;5.20;;;3.40;;
56943;SDS011;42848;42.524;12.052;2023-09-18T11:31:48;8.40;;;3.10;;
56943;SDS011;42848;42.524;12.052;2023-09-18T11:36:48;6.95;;;3.20;;
56943;SDS011;42848;42.524;12.052;2023-09-18T11:39:32;5.63;;;3.03;;
56943;SDS011;42848;42.524;12.052;2023-09-18T11:42:06;5.85;;;3.13;;
56943;SDS011;42848;42.524;12.052;2023-09-18T11:44:33;7.43;;;3.25;;
56943;SDS011;42848;42.524;12.052;2023-09-18T11:47:01;5.65;;;3.05;;
56943;SDS011;42848;42.524;12.052;2023-09-18T11:49:29;6.88;;;3.10;;
56943;SDS011;42848;42.524;12.052;2023-09-18T11:52:00;3.95;;;2.80;;
56943;SDS011;42848;42.524;12.052;2023-09-18T11:54:29;7.35;;;3.05;;
56943;SDS011;42848;42.524;12.052;2023-09-18T11:56:56;6.88;;;3.22;;
56943;SDS011;42848;42.524;12.052;2023-09-18T11:59:40;6.88;;;3.20;;
56943;SDS011;42848;42.524;12.052;2023-09-18T12:02:08;5.72;;;3.08;;
56943;SDS011;42848;42.524;12.052;2023-09-18T12:04:35;5.57;;;2.90;;
56943;SDS011;42848;42.524;12.052;2023-09-18T12:07:02;6.55;;;2.97;;
56943;SDS011;42848;42.524;12.052;2023-09-18T12:09:33;5.63;;;2.90;;
56943;SDS011;42848;42.524;12.052;2023-09-18T12:11:59;9.43;;;3.20;;
56943;SDS011;42848;42.524;12.052;2023-09-18T12:14:33;4.97;;;3.03;;
56943;SDS011;42848;42.524;12.052;2023-09-18T12:17:00;8.68;;;3.10;;
56943;SDS011;42848;42.524;12.052;2023-09-18T12:19:28;6.65;;;3.13;;
56943;SDS011;42848;42.524;12.052;2023-09-18T12:21:53;5.45;;;3.00;;
56943;SDS011;42848;42.524;12.052;2023-09-18T12:24:22;5.65;;;3.10;;
56943;SDS011;42848;42.524;12.052;2023-09-18T12:26:50;7.20;;;3.05;;
56943;SDS011;42848;42.524;12.052;2023-09-18T12:29:17;8.43;;;3.50;;
56943;SDS011;42848;42.524;12.052;2023-09-18T12:31:42;7.70;;;3.60;;
56943;SDS011;42848;42.524;12.052;2023-09-18T12:34:20;5.75;;;3.10;;
56943;SDS011;42848;42.524;12.052;2023-09-18T12:36:47;5.57;;;2.88;;
56943;SDS011;42848;42.524;12.052;2023-09-18T12:39:17;6.53;;;3.13;;
56943;SDS011;42848;42.524;12.052;2023-09-18T12:41:46;7.75;;;3.20;;
56943;SDS011;42848;42.524;12.052;2023-09-18T12:44:13;5.68;;;2.85;;
56943;SDS011;42848;42.524;12.052;2023-09-18T12:46:41;6.50;;;3.03;;
56943;SDS011;42848;42.524;12.052;2023-09-18T12:49:20;7.47;;;3.00;;
56943;SDS011;42848;42.524;12.052;2023-09-18T12:51:58;6.47;;;3.28;;
56943;SDS011;42848;42.524;12.052;2023-09-18T12:54:42;5.68;;;2.80;;
56943;SDS011;42848;42.524;12.052;2023-09-18T12:57:19;5.10;;;3.13;;
56943;SDS011;42848;42.524;12.052;2023-09-18T12:59:45;5.13;;;3.17;;
56943;SDS011;42848;42.524;12.052;2023-09-18T13:02:16;9.45;;;3.13;;
56943;SDS011;42848;42.524;12.052;2023-09-18T13:04:50;7.75;;;2.83;;
56943;SDS011;42848;42.524;12.052;2023-09-18T13:07:17;9.35;;;2.80;;
56943;SDS011;42848;42.524;12.052;2023-09-18T13:09:57;5.55;;;3.30;;
56943;SDS011;42848;42.524;12.052;2023-09-18T13:12:25;4.80;;;3.05;;
56943;SDS011;42848;42.524;12.052;2023-09-18T13:15:00;6.50;;;2.88;;
56943;SDS011;42848;42.524;12.052;2023-09-18T13:17:41;7.32;;;2.90;;
56943;SDS011;42848;42.524;12.052;2023-09-18T13:20:16;5.55;;;3.03;;
56943;SDS011;42848;42.524;12.052;2023-09-18T13:27:47;6.28;;;2.97;;
56943;SDS011;42848;42.524;12.052;2023-09-18T13:30:14;6.47;;;3.25;;
56943;SDS011;42848;42.524;12.052;2023-09-18T13:32:42;6.57;;;3.22;;
56943;SDS011;42848;42.524;12.052;2023-09-18T13:35:17;8.10;;;3.08;;
56943;SDS011;42848;42.524;12.052;2023-09-18T13:37:44;9.93;;;3.10;;
56943;SDS011;42848;42.524;12.052;2023-09-18T13:40:10;6.85;;;3.28;;
56943;SDS011;42848;42.524;12.052;2023-09-18T13:42:39;6.72;;;3.13;;
56943;SDS011;42848;42.524;12.052;2023-09-18T13:45:05;6.15;;;3.05;;
56943;SDS011;42848;42.524;12.052;2023-09-18T13:47:33;6.95;;;3.30;;
56943;SDS011;42848;42.524;12.052;2023-09-18T13:50:00;6.13;;;3.08;;
56943;SDS011;42848;42.524;12.052;2023-09-18T13:52:28;7.13;;;3.00;;
56943;SDS011;42848;42.524;12.052;2023-09-18T13:54:55;5.22;;;2.85;;
56943;SDS011;42848;42.524;12.052;2023-09-18T13:57:21;8.63;;;3.58;;
56943;SDS011;42848;42.524;12.052;2023-09-18T13:59:48;7.40;;;3.10;;
56943;SDS011;42848;42.524;12.052;2023-09-18T14:02:14;6.28;;;3.03;;
56943;SDS011;42848;42.524;12.052;2023-09-18T14:04:41;6.15;;;3.40;;
56943;SDS011;42848;42.524;12.052;2023-09-18T14:07:08;6.65;;;3.10;;
56943;SDS011;42848;42.524;12.052;2023-09-18T14:09:35;7.20;;;3.20;;
56943;SDS011;42848;42.524;12.052;2023-09-18T14:12:01;4.45;;;2.83;;
56943;SDS011;42848;42.524;12.052;2023-09-18T14:14:28;6.50;;;3.10;;
56943;SDS011;42848;42.524;12.052;2023-09-18T14:16:54;5.93;;;3.05;;
56943;SDS011;42848;42.524;12.052;2023-09-18T14:19:19;6.00;;;3.40;;
56943;SDS011;42848;42.524;12.052;2023-09-18T14:21:46;4.32;;;3.15;;
56943;SDS011;42848;42.524;12.052;2023-09-18T14:24:14;6.47;;;3.25;;
56943;SDS011;42848;42.524;12.052;2023-09-18T14:26:43;7.88;;;3.42;;
56943;SDS011;42848;42.524;12.052;2023-09-18T14:29:10;7.82;;;3.28;;
56943;SDS011;42848;42.524;12.052;2023-09-18T14:31:36;7.43;;;3.55;;
56943;SDS011;42848;42.524;12.052;2023-09-18T14:34:02;6.57;;;4.07;;
56943;SDS011;42848;42.524;12.052;2023-09-18T14:36:31;8.18;;;3.63;;
56943;SDS011;42848;42.524;12.052;2023-09-18T14:39:01;5.65;;;3.30;;
56943;SDS011;42848;42.524;12.052;2023-09-18T14:41:28;9.63;;;3.67;;
56943;SDS011;42848;42.524;12.052;2023-09-18T14:43:55;6.22;;;3.47;;
56943;SDS011;42848;42.524;12.052;2023-09-18T14:46:24;8.27;;;3.60;;
56943;SDS011;42848;42.524;12.052;2023-09-18T14:48:49;11.63;;;3.90;;
56943;SDS011;42848;42.524;12.052;2023-09-18T14:51:15;6.68;;;3.50;;
56943;SDS011;42848;42.524;12.052;2023-09-18T14:53:41;9.77;;;3.70;;
56943;SDS011;42848;42.524;12.052;2023-09-18T14:56:07;10.20;;;4.03;;
56943;SDS011;42848;42.524;12.052;2023-09-18T14:58:32;7.20;;;3.75;;
56943;SDS011;42848;42.524;12.052;2023-09-18T15:00:59;6.20;;;3.88;;
56943;SDS011;42848;42.524;12.052;2023-09-18T15:03:25;8.27;;;4.47;;
56943;SDS011;42848;42.524;12.052;2023-09-18T15:05:51;9.07;;;4.45;;